sensor_id;sensor_type;location;lat;lon;timestamp;temperature;humidity
19232;DHT22;9750;48.730;10.294;2022-12-18T00:02:24;-4.10;98.00
19232;DHT22;9750;48.730;10.294;2022-12-18T00:04:51;-4.10;97.80
19232;DHT22;9750;48.730;10.294;2022-12-18T00:07:18;-4.10;97.90
19232;DHT22;9750;48.730;10.294;2022-12-18T00:09:45;-4.10;97.90
19232;DHT22;9750;48.730;10.294;2022-12-18T00:12:19;-4.10;97.80
19232;DHT22;9750;48.730;10.294;2022-12-18T00:14:47;-4.10;97.70
19232;DHT22;9750;48.730;10.294;2022-12-18T00:17:15;-4.10;97.70
19232;DHT22;9750;48.730;10.294;2022-12-18T00:19:42;-4.10;97.70
19232;DHT22;9750;48.730;10.294;2022-12-18T00:22:09;-4.10;97.80
19232;DHT22;9750;48.730;10.294;2022-12-18T00:24:37;-4.10;97.80
19232;DHT22;9750;48.730;10.294;2022-12-18T00:27:04;-4.10;97.70
19232;DHT22;9750;48.730;10.294;2022-12-18T00:29:31;-4.10;97.70
19232;DHT22;9750;48.730;10.294;2022-12-18T00:32:00;-4.10;97.70
19232;DHT22;9750;48.730;10.294;2022-12-18T00:34:27;-4.10;97.60
19232;DHT22;9750;48.730;10.294;2022-12-18T00:36:55;-4.10;97.60
19232;DHT22;9750;48.730;10.294;2022-12-18T00:39:22;-4.10;97.50
19232;DHT22;9750;48.730;10.294;2022-12-18T00:41:49;-4.10;97.50
19232;DHT22;9750;48.730;10.294;2022-12-18T00:44:34;-4.10;97.60
19232;DHT22;9750;48.730;10.294;2022-12-18T00:47:02;-4.00;97.60
19232;DHT22;9750;48.730;10.294;2022-12-18T00:49:30;-4.10;97.50
19232;DHT22;9750;48.730;10.294;2022-12-18T00:51:57;-4.00;97.60
19232;DHT22;9750;48.730;10.294;2022-12-18T00:54:24;-4.00;97.70
19232;DHT22;9750;48.730;10.294;2022-12-18T00:56:52;-4.00;97.70
19232;DHT22;9750;48.730;10.294;2022-12-18T00:59:20;-4.10;97.60
19232;DHT22;9750;48.730;10.294;2022-12-18T01:01:48;-4.10;97.60
19232;DHT22;9750;48.730;10.294;2022-12-18T01:04:20;-4.10;97.70
19232;DHT22;9750;48.730;10.294;2022-12-18T01:06:47;-4.10;97.60
19232;DHT22;9750;48.730;10.294;2022-12-18T01:09:15;-4.10;97.60
19232;DHT22;9750;48.730;10.294;2022-12-18T01:11:42;-4.10;97.40
19232;DHT22;9750;48.730;10.294;2022-12-18T01:14:09;-4.10;97.50
19232;DHT22;9750;48.730;10.294;2022-12-18T01:16:37;-4.20;97.50
19232;DHT22;9750;48.730;10.294;2022-12-18T01:19:04;-4.20;97.50
19232;DHT22;9750;48.730;10.294;2022-12-18T01:21:33;-4.20;97.50
19232;DHT22;9750;48.730;10.294;2022-12-18T01:24:01;-4.30;97.40
19232;DHT22;9750;48.730;10.294;2022-12-18T01:26:28;-4.30;97.50
19232;DHT22;9750;48.730;10.294;2022-12-18T01:28:56;-4.30;97.50
19232;DHT22;9750;48.730;10.294;2022-12-18T01:31:26;-4.20;97.40
19232;DHT22;9750;48.730;10.294;2022-12-18T01:33:54;-4.20;97.40
19232;DHT22;9750;48.730;10.294;2022-12-18T01:36:24;-4.20;97.60
19232;DHT22;9750;48.730;10.294;2022-12-18T01:38:53;-4.20;97.40
19232;DHT22;9750;48.730;10.294;2022-12-18T01:41:23;-4.20;97.30
19232;DHT22;9750;48.730;10.294;2022-12-18T01:43:54;-4.30;97.20
19232;DHT22;9750;48.730;10.294;2022-12-18T01:46:23;-4.30;97.30
19232;DHT22;9750;48.730;10.294;2022-12-18T01:48:55;-4.20;97.10
19232;DHT22;9750;48.730;10.294;2022-12-18T01:51:23;-4.20;97.00
19232;DHT22;9750;48.730;10.294;2022-12-18T01:53:52;-4.20;96.90
19232;DHT22;9750;48.730;10.294;2022-12-18T01:56:20;-4.30;97.00
19232;DHT22;9750;48.730;10.294;2022-12-18T01:58:53;-4.40;97.20
19232;DHT22;9750;48.730;10.294;2022-12-18T02:01:23;-4.40;97.00
19232;DHT22;9750;48.730;10.294;2022-12-18T02:03:50;-4.40;97.30
19232;DHT22;9750;48.730;10.294;2022-12-18T02:06:21;-4.40;97.30
19232;DHT22;9750;48.730;10.294;2022-12-18T02:09:02;-4.40;97.40
19232;DHT22;9750;48.730;10.294;2022-12-18T02:11:40;-4.30;97.60
19232;DHT22;9750;48.730;10.294;2022-12-18T02:14:21;-4.40;97.60
19232;DHT22;9750;48.730;10.294;2022-12-18T02:16:55;-4.30;97.70
19232;DHT22;9750;48.730;10.294;2022-12-18T02:19:43;-4.40;97.80
19232;DHT22;9750;48.730;10.294;2022-12-18T02:22:20;-4.30;97.70
19232;DHT22;9750;48.730;10.294;2022-12-18T02:25:00;-4.30;97.80
19232;DHT22;9750;48.730;10.294;2022-12-18T02:27:32;-4.30;97.90
19232;DHT22;9750;48.730;10.294;2022-12-18T02:30:02;-4.30;97.80
19232;DHT22;9750;48.730;10.294;2022-12-18T02:32:37;-4.30;97.80
19232;DHT22;9750;48.730;10.294;2022-12-18T02:35:08;-4.30;97.90
19232;DHT22;9750;48.730;10.294;2022-12-18T02:37:36;-4.30;97.90
19232;DHT22;9750;48.730;10.294;2022-12-18T02:40:07;-4.30;98.00
19232;DHT22;9750;48.730;10.294;2022-12-18T02:42:36;-4.20;97.90
19232;DHT22;9750;48.730;10.294;2022-12-18T02:45:04;-4.30;97.80
19232;DHT22;9750;48.730;10.294;2022-12-18T02:47:34;-4.20;97.90
19232;DHT22;9750;48.730;10.294;2022-12-18T02:50:10;-4.20;98.00
19232;DHT22;9750;48.730;10.294;2022-12-18T02:52:45;-4.20;97.90
19232;DHT22;9750;48.730;10.294;2022-12-18T02:55:24;-4.20;98.00
19232;DHT22;9750;48.730;10.294;2022-12-18T02:57:56;-4.20;98.10
19232;DHT22;9750;48.730;10.294;2022-12-18T03:00:26;-4.20;98.10
19232;DHT22;9750;48.730;10.294;2022-12-18T03:02:59;-4.20;98.20
19232;DHT22;9750;48.730;10.294;2022-12-18T03:05:31;-4.20;98.20
19232;DHT22;9750;48.730;10.294;2022-12-18T03:08:05;-4.20;98.20
19232;DHT22;9750;48.730;10.294;2022-12-18T03:10:38;-4.20;98.30
19232;DHT22;9750;48.730;10.294;2022-12-18T03:13:13;-4.20;98.10
19232;DHT22;9750;48.730;10.294;2022-12-18T03:15:44;-4.20;98.30
19232;DHT22;9750;48.730;10.294;2022-12-18T03:18:16;-4.20;98.20
19232;DHT22;9750;48.730;10.294;2022-12-18T03:20:46;-4.10;98.20
19232;DHT22;9750;48.730;10.294;2022-12-18T03:23:17;-4.10;98.40
19232;DHT22;9750;48.730;10.294;2022-12-18T03:25:46;-4.10;98.30
19232;DHT22;9750;48.730;10.294;2022-12-18T03:28:20;-4.10;98.20
19232;DHT22;9750;48.730;10.294;2022-12-18T03:30:52;-4.10;98.10
19232;DHT22;9750;48.730;10.294;2022-12-18T03:33:27;-4.10;98.20
19232;DHT22;9750;48.730;10.294;2022-12-18T03:35:55;-4.00;98.20
19232;DHT22;9750;48.730;10.294;2022-12-18T03:38:23;-4.00;98.70
19232;DHT22;9750;48.730;10.294;2022-12-18T03:40:56;-4.10;98.30
19232;DHT22;9750;48.730;10.294;2022-12-18T03:43:36;-4.10;98.20
19232;DHT22;9750;48.730;10.294;2022-12-18T03:46:09;-4.00;98.30
19232;DHT22;9750;48.730;10.294;2022-12-18T03:48:43;-4.10;98.10
19232;DHT22;9750;48.730;10.294;2022-12-18T03:51:16;-4.00;98.10
19232;DHT22;9750;48.730;10.294;2022-12-18T03:53:49;-4.00;98.00
19232;DHT22;9750;48.730;10.294;2022-12-18T03:56:21;-4.10;98.00
19232;DHT22;9750;48.730;10.294;2022-12-18T03:58:53;-4.10;98.10
19232;DHT22;9750;48.730;10.294;2022-12-18T04:01:23;-4.10;98.20
19232;DHT22;9750;48.730;10.294;2022-12-18T04:03:54;-4.10;98.00
19232;DHT22;9750;48.730;10.294;2022-12-18T04:06:22;-4.10;98.00
19232;DHT22;9750;48.730;10.294;2022-12-18T04:08:50;-4.00;98.00
19232;DHT22;9750;48.730;10.294;2022-12-18T04:11:18;-4.00;97.90
19232;DHT22;9750;48.730;10.294;2022-12-18T04:13:45;-4.00;97.90
19232;DHT22;9750;48.730;10.294;2022-12-18T04:16:14;-4.00;97.70
19232;DHT22;9750;48.730;10.294;2022-12-18T04:18:41;-4.00;97.80
19232;DHT22;9750;48.730;10.294;2022-12-18T04:21:09;-4.00;97.80
19232;DHT22;9750;48.730;10.294;2022-12-18T04:23:37;-4.00;97.70
19232;DHT22;9750;48.730;10.294;2022-12-18T04:26:04;-4.00;97.60
19232;DHT22;9750;48.730;10.294;2022-12-18T04:28:31;-4.00;97.60
19232;DHT22;9750;48.730;10.294;2022-12-18T04:30:59;-4.00;97.60
19232;DHT22;9750;48.730;10.294;2022-12-18T04:33:45;-4.00;97.60
19232;DHT22;9750;48.730;10.294;2022-12-18T04:36:12;-4.00;97.60
19232;DHT22;9750;48.730;10.294;2022-12-18T04:38:39;-4.00;97.50
19232;DHT22;9750;48.730;10.294;2022-12-18T04:41:07;-4.00;97.50
19232;DHT22;9750;48.730;10.294;2022-12-18T04:43:34;-4.00;97.50
19232;DHT22;9750;48.730;10.294;2022-12-18T04:46:02;-4.00;97.60
19232;DHT22;9750;48.730;10.294;2022-12-18T04:48:30;-3.90;97.50
19232;DHT22;9750;48.730;10.294;2022-12-18T04:50:59;-3.90;97.50
19232;DHT22;9750;48.730;10.294;2022-12-18T04:53:26;-4.00;97.50
19232;DHT22;9750;48.730;10.294;2022-12-18T04:56:03;-3.90;97.50
19232;DHT22;9750;48.730;10.294;2022-12-18T04:58:30;-3.90;97.50
19232;DHT22;9750;48.730;10.294;2022-12-18T05:00:58;-3.90;97.50
19232;DHT22;9750;48.730;10.294;2022-12-18T05:03:35;-3.90;97.60
19232;DHT22;9750;48.730;10.294;2022-12-18T05:06:04;-4.00;97.50
19232;DHT22;9750;48.730;10.294;2022-12-18T05:08:32;-4.00;97.60
19232;DHT22;9750;48.730;10.294;2022-12-18T05:11:00;-4.00;97.60
19232;DHT22;9750;48.730;10.294;2022-12-18T05:16:49;-4.00;97.80
19232;DHT22;9750;48.730;10.294;2022-12-18T05:19:16;-4.00;97.90
19232;DHT22;9750;48.730;10.294;2022-12-18T05:21:45;-4.00;98.00
19232;DHT22;9750;48.730;10.294;2022-12-18T05:24:13;-4.00;98.00
19232;DHT22;9750;48.730;10.294;2022-12-18T05:26:40;-4.00;98.10
19232;DHT22;9750;48.730;10.294;2022-12-18T05:29:07;-4.00;98.00
19232;DHT22;9750;48.730;10.294;2022-12-18T05:31:37;-4.00;98.00
19232;DHT22;9750;48.730;10.294;2022-12-18T05:34:05;-4.00;98.00
19232;DHT22;9750;48.730;10.294;2022-12-18T05:36:32;-4.00;98.10
19232;DHT22;9750;48.730;10.294;2022-12-18T05:39:01;-3.90;98.10
19232;DHT22;9750;48.730;10.294;2022-12-18T05:41:28;-3.90;98.10
19232;DHT22;9750;48.730;10.294;2022-12-18T05:43:56;-3.90;98.20
19232;DHT22;9750;48.730;10.294;2022-12-18T05:46:23;-3.90;98.20
19232;DHT22;9750;48.730;10.294;2022-12-18T05:48:51;-3.80;98.20
19232;DHT22;9750;48.730;10.294;2022-12-18T05:51:20;-3.90;98.10
19232;DHT22;9750;48.730;10.294;2022-12-18T05:57:11;-3.80;98.30
19232;DHT22;9750;48.730;10.294;2022-12-18T05:59:38;-3.80;98.30
19232;DHT22;9750;48.730;10.294;2022-12-18T06:02:05;-3.80;98.20
19232;DHT22;9750;48.730;10.294;2022-12-18T06:04:32;-3.80;98.20
19232;DHT22;9750;48.730;10.294;2022-12-18T06:07:03;-3.80;98.40
19232;DHT22;9750;48.730;10.294;2022-12-18T06:09:30;-3.80;98.30
19232;DHT22;9750;48.730;10.294;2022-12-18T06:11:58;-3.80;98.30
19232;DHT22;9750;48.730;10.294;2022-12-18T06:14:27;-3.80;98.30
19232;DHT22;9750;48.730;10.294;2022-12-18T06:16:54;-3.80;98.40
19232;DHT22;9750;48.730;10.294;2022-12-18T06:19:21;-3.80;98.50
19232;DHT22;9750;48.730;10.294;2022-12-18T06:21:48;-3.80;98.60
19232;DHT22;9750;48.730;10.294;2022-12-18T06:24:17;-3.80;98.80
19232;DHT22;9750;48.730;10.294;2022-12-18T06:26:44;-3.70;98.50
19232;DHT22;9750;48.730;10.294;2022-12-18T06:29:11;-3.70;98.60
19232;DHT22;9750;48.730;10.294;2022-12-18T06:31:43;-3.70;98.60
19232;DHT22;9750;48.730;10.294;2022-12-18T06:34:25;-3.70;98.70
19232;DHT22;9750;48.730;10.294;2022-12-18T06:36:53;-3.70;98.50
19232;DHT22;9750;48.730;10.294;2022-12-18T06:39:20;-3.70;98.60
19232;DHT22;9750;48.730;10.294;2022-12-18T06:41:47;-3.70;98.60
19232;DHT22;9750;48.730;10.294;2022-12-18T06:44:21;-3.60;98.60
19232;DHT22;9750;48.730;10.294;2022-12-18T06:46:50;-3.70;98.60
19232;DHT22;9750;48.730;10.294;2022-12-18T06:49:17;-3.70;98.70
19232;DHT22;9750;48.730;10.294;2022-12-18T06:51:45;-3.60;98.60
19232;DHT22;9750;48.730;10.294;2022-12-18T06:54:13;-3.60;98.60
19232;DHT22;9750;48.730;10.294;2022-12-18T06:56:40;-3.60;98.70
19232;DHT22;9750;48.730;10.294;2022-12-18T06:59:07;-3.60;98.80
19232;DHT22;9750;48.730;10.294;2022-12-18T07:01:35;-3.70;98.80
19232;DHT22;9750;48.730;10.294;2022-12-18T07:04:04;-3.60;99.00
19232;DHT22;9750;48.730;10.294;2022-12-18T07:06:31;-3.60;99.00
19232;DHT22;9750;48.730;10.294;2022-12-18T07:08:58;-3.60;98.80
19232;DHT22;9750;48.730;10.294;2022-12-18T07:11:27;-3.60;98.80
19232;DHT22;9750;48.730;10.294;2022-12-18T07:13:55;-3.60;98.90
19232;DHT22;9750;48.730;10.294;2022-12-18T07:16:22;-3.60;98.90
19232;DHT22;9750;48.730;10.294;2022-12-18T07:18:49;-3.50;98.90
19232;DHT22;9750;48.730;10.294;2022-12-18T07:21:19;-3.50;98.90
19232;DHT22;9750;48.730;10.294;2022-12-18T07:23:46;-3.50;98.90
19232;DHT22;9750;48.730;10.294;2022-12-18T07:26:15;-3.50;98.90
19232;DHT22;9750;48.730;10.294;2022-12-18T07:28:42;-3.50;99.00
19232;DHT22;9750;48.730;10.294;2022-12-18T07:31:12;-3.50;98.90
19232;DHT22;9750;48.730;10.294;2022-12-18T07:33:40;-3.40;98.90
19232;DHT22;9750;48.730;10.294;2022-12-18T07:36:10;-3.40;99.00
19232;DHT22;9750;48.730;10.294;2022-12-18T07:38:39;-3.40;98.90
19232;DHT22;9750;48.730;10.294;2022-12-18T07:41:08;-3.40;98.90
19232;DHT22;9750;48.730;10.294;2022-12-18T07:43:48;-3.40;98.90
19232;DHT22;9750;48.730;10.294;2022-12-18T07:46:16;-3.30;98.90
19232;DHT22;9750;48.730;10.294;2022-12-18T07:48:44;-3.30;98.80
19232;DHT22;9750;48.730;10.294;2022-12-18T07:51:12;-3.20;98.80
19232;DHT22;9750;48.730;10.294;2022-12-18T07:53:41;-3.20;98.80
19232;DHT22;9750;48.730;10.294;2022-12-18T07:56:09;-3.30;98.80
19232;DHT22;9750;48.730;10.294;2022-12-18T07:58:37;-3.20;98.90
19232;DHT22;9750;48.730;10.294;2022-12-18T08:01:06;-3.20;98.80
19232;DHT22;9750;48.730;10.294;2022-12-18T08:03:34;-3.20;98.80
19232;DHT22;9750;48.730;10.294;2022-12-18T08:06:01;-3.20;98.80
19232;DHT22;9750;48.730;10.294;2022-12-18T08:08:29;-3.20;98.90
19232;DHT22;9750;48.730;10.294;2022-12-18T08:10:58;-3.10;99.00
19232;DHT22;9750;48.730;10.294;2022-12-18T08:13:27;-3.10;99.00
19232;DHT22;9750;48.730;10.294;2022-12-18T08:15:59;-3.10;98.90
19232;DHT22;9750;48.730;10.294;2022-12-18T08:18:27;-3.10;98.90
19232;DHT22;9750;48.730;10.294;2022-12-18T08:20:55;-3.10;98.90
19232;DHT22;9750;48.730;10.294;2022-12-18T08:23:22;-3.10;99.00
19232;DHT22;9750;48.730;10.294;2022-12-18T08:25:50;-3.00;99.00
19232;DHT22;9750;48.730;10.294;2022-12-18T08:28:18;-3.00;99.00
19232;DHT22;9750;48.730;10.294;2022-12-18T08:30:46;-2.90;98.90
19232;DHT22;9750;48.730;10.294;2022-12-18T08:33:13;-3.00;98.90
19232;DHT22;9750;48.730;10.294;2022-12-18T08:35:41;-3.00;98.80
19232;DHT22;9750;48.730;10.294;2022-12-18T08:38:08;-2.90;98.90
19232;DHT22;9750;48.730;10.294;2022-12-18T08:40:35;-2.90;98.90
19232;DHT22;9750;48.730;10.294;2022-12-18T08:43:06;-2.90;98.80
19232;DHT22;9750;48.730;10.294;2022-12-18T08:45:53;-2.90;98.80
19232;DHT22;9750;48.730;10.294;2022-12-18T08:48:20;-2.90;98.80
19232;DHT22;9750;48.730;10.294;2022-12-18T08:50:54;-2.90;98.80
19232;DHT22;9750;48.730;10.294;2022-12-18T08:53:22;-2.90;98.80
19232;DHT22;9750;48.730;10.294;2022-12-18T08:55:52;-2.90;98.80
19232;DHT22;9750;48.730;10.294;2022-12-18T08:58:20;-2.90;98.80
19232;DHT22;9750;48.730;10.294;2022-12-18T09:00:47;-2.80;98.80
19232;DHT22;9750;48.730;10.294;2022-12-18T09:03:18;-2.80;98.80
19232;DHT22;9750;48.730;10.294;2022-12-18T09:05:48;-2.70;98.80
19232;DHT22;9750;48.730;10.294;2022-12-18T09:08:15;-2.70;98.80
19232;DHT22;9750;48.730;10.294;2022-12-18T09:10:43;-2.60;98.70
19232;DHT22;9750;48.730;10.294;2022-12-18T09:13:21;-2.60;98.70
19232;DHT22;9750;48.730;10.294;2022-12-18T09:15:50;-2.60;98.60
19232;DHT22;9750;48.730;10.294;2022-12-18T09:18:21;-2.50;98.70
19232;DHT22;9750;48.730;10.294;2022-12-18T09:20:49;-2.50;98.50
19232;DHT22;9750;48.730;10.294;2022-12-18T09:23:18;-2.40;98.50
19232;DHT22;9750;48.730;10.294;2022-12-18T09:25:45;-2.40;98.60
19232;DHT22;9750;48.730;10.294;2022-12-18T09:28:14;-2.30;98.40
19232;DHT22;9750;48.730;10.294;2022-12-18T09:30:43;-2.30;98.30
19232;DHT22;9750;48.730;10.294;2022-12-18T09:33:11;-2.30;98.20
19232;DHT22;9750;48.730;10.294;2022-12-18T09:35:42;-2.20;98.20
19232;DHT22;9750;48.730;10.294;2022-12-18T09:38:12;-2.30;98.40
19232;DHT22;9750;48.730;10.294;2022-12-18T09:40:43;-2.20;98.40
19232;DHT22;9750;48.730;10.294;2022-12-18T09:43:15;-2.20;98.30
19232;DHT22;9750;48.730;10.294;2022-12-18T09:45:46;-2.20;98.20
19232;DHT22;9750;48.730;10.294;2022-12-18T09:48:19;-2.20;98.30
19232;DHT22;9750;48.730;10.294;2022-12-18T09:50:50;-2.20;98.20
19232;DHT22;9750;48.730;10.294;2022-12-18T09:53:21;-2.10;98.20
19232;DHT22;9750;48.730;10.294;2022-12-18T09:55:51;-2.10;98.20
19232;DHT22;9750;48.730;10.294;2022-12-18T09:58:24;-2.00;98.10
19232;DHT22;9750;48.730;10.294;2022-12-18T10:00:53;-2.00;98.20
19232;DHT22;9750;48.730;10.294;2022-12-18T10:06:49;-2.00;97.90
19232;DHT22;9750;48.730;10.294;2022-12-18T10:09:24;-2.00;98.00
19232;DHT22;9750;48.730;10.294;2022-12-18T10:12:02;-1.90;98.00
19232;DHT22;9750;48.730;10.294;2022-12-18T10:14:36;-1.90;97.90
19232;DHT22;9750;48.730;10.294;2022-12-18T10:17:14;-1.90;97.80
19232;DHT22;9750;48.730;10.294;2022-12-18T10:19:50;-1.90;97.90
19232;DHT22;9750;48.730;10.294;2022-12-18T10:22:28;-1.80;98.20
19232;DHT22;9750;48.730;10.294;2022-12-18T10:25:03;-1.80;97.80
19232;DHT22;9750;48.730;10.294;2022-12-18T10:27:32;-1.80;97.70
19232;DHT22;9750;48.730;10.294;2022-12-18T10:30:04;-1.80;97.70
19232;DHT22;9750;48.730;10.294;2022-12-18T10:32:35;-1.80;97.70
19232;DHT22;9750;48.730;10.294;2022-12-18T10:35:03;-1.80;97.80
19232;DHT22;9750;48.730;10.294;2022-12-18T10:37:32;-1.70;98.00
19232;DHT22;9750;48.730;10.294;2022-12-18T10:40:09;-1.60;97.70
19232;DHT22;9750;48.730;10.294;2022-12-18T10:42:37;-1.60;97.80
19232;DHT22;9750;48.730;10.294;2022-12-18T10:45:09;-1.50;97.70
19232;DHT22;9750;48.730;10.294;2022-12-18T10:47:42;-1.50;97.80
19232;DHT22;9750;48.730;10.294;2022-12-18T10:50:19;-1.50;97.70
19232;DHT22;9750;48.730;10.294;2022-12-18T10:52:57;-1.50;97.70
19232;DHT22;9750;48.730;10.294;2022-12-18T10:55:27;-1.50;97.70
19232;DHT22;9750;48.730;10.294;2022-12-18T10:58:13;-1.40;97.70
19232;DHT22;9750;48.730;10.294;2022-12-18T11:00:44;-1.40;97.60
19232;DHT22;9750;48.730;10.294;2022-12-18T11:03:30;-1.40;97.40
19232;DHT22;9750;48.730;10.294;2022-12-18T11:06:06;-1.40;97.60
19232;DHT22;9750;48.730;10.294;2022-12-18T11:08:35;-1.40;97.60
19232;DHT22;9750;48.730;10.294;2022-12-18T11:11:06;-1.50;97.60
19232;DHT22;9750;48.730;10.294;2022-12-18T11:13:34;-1.50;97.70
19232;DHT22;9750;48.730;10.294;2022-12-18T11:16:01;-1.50;97.70
19232;DHT22;9750;48.730;10.294;2022-12-18T11:18:30;-1.50;97.70
19232;DHT22;9750;48.730;10.294;2022-12-18T11:21:01;-1.50;97.70
19232;DHT22;9750;48.730;10.294;2022-12-18T11:23:35;-1.40;97.70
19232;DHT22;9750;48.730;10.294;2022-12-18T11:26:04;-1.40;97.70
19232;DHT22;9750;48.730;10.294;2022-12-18T11:28:36;-1.40;97.60
19232;DHT22;9750;48.730;10.294;2022-12-18T11:31:25;-1.30;97.60
19232;DHT22;9750;48.730;10.294;2022-12-18T11:33:57;-1.30;97.70
19232;DHT22;9750;48.730;10.294;2022-12-18T11:36:29;-1.30;97.60
19232;DHT22;9750;48.730;10.294;2022-12-18T11:39:03;-1.30;97.50
19232;DHT22;9750;48.730;10.294;2022-12-18T11:41:38;-1.30;97.70
19232;DHT22;9750;48.730;10.294;2022-12-18T11:47:49;-1.30;97.60
19232;DHT22;9750;48.730;10.294;2022-12-18T11:50:23;-1.30;97.70
19232;DHT22;9750;48.730;10.294;2022-12-18T11:52:51;-1.20;97.70
19232;DHT22;9750;48.730;10.294;2022-12-18T11:55:41;-1.20;97.60
19232;DHT22;9750;48.730;10.294;2022-12-18T11:58:19;-1.10;97.60
19232;DHT22;9750;48.730;10.294;2022-12-18T12:00:57;-1.10;97.60
19232;DHT22;9750;48.730;10.294;2022-12-18T12:03:44;-1.10;97.70
19232;DHT22;9750;48.730;10.294;2022-12-18T12:06:21;-1.10;97.60
19232;DHT22;9750;48.730;10.294;2022-12-18T12:09:00;-1.10;97.70
19232;DHT22;9750;48.730;10.294;2022-12-18T12:11:42;-1.00;97.50
19232;DHT22;9750;48.730;10.294;2022-12-18T12:14:25;-1.00;97.50
19232;DHT22;9750;48.730;10.294;2022-12-18T12:17:01;-1.00;97.50
19232;DHT22;9750;48.730;10.294;2022-12-18T12:19:40;-0.90;97.50
19232;DHT22;9750;48.730;10.294;2022-12-18T12:22:17;-0.90;97.50
19232;DHT22;9750;48.730;10.294;2022-12-18T12:24:57;-0.80;97.60
19232;DHT22;9750;48.730;10.294;2022-12-18T12:27:37;-0.90;97.30
19232;DHT22;9750;48.730;10.294;2022-12-18T12:30:09;-1.00;97.20
19232;DHT22;9750;48.730;10.294;2022-12-18T12:32:45;-1.00;97.30
19232;DHT22;9750;48.730;10.294;2022-12-18T12:35:25;-1.00;97.30
19232;DHT22;9750;48.730;10.294;2022-12-18T12:38:06;-1.00;97.30
19232;DHT22;9750;48.730;10.294;2022-12-18T12:40:38;-1.00;97.30
19232;DHT22;9750;48.730;10.294;2022-12-18T12:43:21;-0.90;97.30
19232;DHT22;9750;48.730;10.294;2022-12-18T12:45:50;-0.90;97.30
19232;DHT22;9750;48.730;10.294;2022-12-18T12:48:27;-0.90;97.20
19232;DHT22;9750;48.730;10.294;2022-12-18T12:50:59;-0.90;97.30
19232;DHT22;9750;48.730;10.294;2022-12-18T12:53:32;-0.90;97.30
19232;DHT22;9750;48.730;10.294;2022-12-18T12:56:01;-0.90;97.30
19232;DHT22;9750;48.730;10.294;2022-12-18T12:58:38;-0.90;97.40
19232;DHT22;9750;48.730;10.294;2022-12-18T13:01:16;-0.90;97.50
19232;DHT22;9750;48.730;10.294;2022-12-18T13:03:56;-0.90;97.30
19232;DHT22;9750;48.730;10.294;2022-12-18T13:06:40;-0.90;97.30
19232;DHT22;9750;48.730;10.294;2022-12-18T13:09:09;-0.90;97.40
19232;DHT22;9750;48.730;10.294;2022-12-18T13:11:39;-0.90;97.40
19232;DHT22;9750;48.730;10.294;2022-12-18T13:14:28;-1.00;97.40
19232;DHT22;9750;48.730;10.294;2022-12-18T13:17:28;-1.00;97.30
19232;DHT22;9750;48.730;10.294;2022-12-18T13:20:11;-1.00;97.40
19232;DHT22;9750;48.730;10.294;2022-12-18T13:22:41;-1.10;97.30
19232;DHT22;9750;48.730;10.294;2022-12-18T13:25:35;-1.00;97.30
19232;DHT22;9750;48.730;10.294;2022-12-18T13:28:11;-1.00;97.50
19232;DHT22;9750;48.730;10.294;2022-12-18T13:30:51;-1.00;97.40
19232;DHT22;9750;48.730;10.294;2022-12-18T13:33:49;-1.00;97.30
19232;DHT22;9750;48.730;10.294;2022-12-18T13:36:28;-1.00;97.40
19232;DHT22;9750;48.730;10.294;2022-12-18T13:39:21;-1.00;97.30
19232;DHT22;9750;48.730;10.294;2022-12-18T13:41:51;-1.00;97.50
19232;DHT22;9750;48.730;10.294;2022-12-18T13:44:28;-1.00;97.40
19232;DHT22;9750;48.730;10.294;2022-12-18T13:47:00;-1.10;97.40
19232;DHT22;9750;48.730;10.294;2022-12-18T13:49:36;-1.10;97.40
19232;DHT22;9750;48.730;10.294;2022-12-18T13:52:16;-1.10;97.40
19232;DHT22;9750;48.730;10.294;2022-12-18T13:54:47;-1.10;97.50
19232;DHT22;9750;48.730;10.294;2022-12-18T13:57:27;-1.20;97.50
19232;DHT22;9750;48.730;10.294;2022-12-18T13:59:55;-1.20;97.50
19232;DHT22;9750;48.730;10.294;2022-12-18T14:02:25;-1.20;97.50
19232;DHT22;9750;48.730;10.294;2022-12-18T14:04:54;-1.20;97.50
19232;DHT22;9750;48.730;10.294;2022-12-18T14:07:22;-1.20;97.50
19232;DHT22;9750;48.730;10.294;2022-12-18T14:09:52;-1.20;97.70
19232;DHT22;9750;48.730;10.294;2022-12-18T14:12:24;-1.20;97.70
19232;DHT22;9750;48.730;10.294;2022-12-18T14:15:20;-1.20;97.80
19232;DHT22;9750;48.730;10.294;2022-12-18T14:17:52;-1.30;97.80
19232;DHT22;9750;48.730;10.294;2022-12-18T14:20:20;-1.30;97.80
19232;DHT22;9750;48.730;10.294;2022-12-18T14:22:48;-1.30;97.80
19232;DHT22;9750;48.730;10.294;2022-12-18T14:25:18;-1.30;97.90
19232;DHT22;9750;48.730;10.294;2022-12-18T14:27:47;-1.30;97.90
19232;DHT22;9750;48.730;10.294;2022-12-18T14:30:26;-1.30;97.90
19232;DHT22;9750;48.730;10.294;2022-12-18T14:33:02;-1.40;97.80
19232;DHT22;9750;48.730;10.294;2022-12-18T14:35:30;-1.40;98.00
19232;DHT22;9750;48.730;10.294;2022-12-18T14:40:53;-1.50;98.10
19232;DHT22;9750;48.730;10.294;2022-12-18T14:43:21;-1.50;98.20
19232;DHT22;9750;48.730;10.294;2022-12-18T14:45:49;-1.50;98.10
19232;DHT22;9750;48.730;10.294;2022-12-18T14:48:20;-1.50;98.10
19232;DHT22;9750;48.730;10.294;2022-12-18T14:50:55;-1.50;98.10
19232;DHT22;9750;48.730;10.294;2022-12-18T14:53:31;-1.50;98.20
19232;DHT22;9750;48.730;10.294;2022-12-18T14:55:59;-1.50;98.30
19232;DHT22;9750;48.730;10.294;2022-12-18T14:58:27;-1.60;98.30
19232;DHT22;9750;48.730;10.294;2022-12-18T15:00:54;-1.60;98.30
19232;DHT22;9750;48.730;10.294;2022-12-18T15:03:23;-1.60;98.40
19232;DHT22;9750;48.730;10.294;2022-12-18T15:05:50;-1.60;98.50
19232;DHT22;9750;48.730;10.294;2022-12-18T15:08:35;-1.70;98.50
19232;DHT22;9750;48.730;10.294;2022-12-18T15:11:03;-1.70;98.50
19232;DHT22;9750;48.730;10.294;2022-12-18T15:13:50;-1.70;98.70
19232;DHT22;9750;48.730;10.294;2022-12-18T15:16:18;-1.70;98.50
19232;DHT22;9750;48.730;10.294;2022-12-18T15:18:46;-1.80;98.50
19232;DHT22;9750;48.730;10.294;2022-12-18T15:21:17;-1.80;98.50
19232;DHT22;9750;48.730;10.294;2022-12-18T15:23:47;-1.80;98.60
19232;DHT22;9750;48.730;10.294;2022-12-18T15:26:17;-1.80;98.60
19232;DHT22;9750;48.730;10.294;2022-12-18T15:28:46;-1.80;98.90
19232;DHT22;9750;48.730;10.294;2022-12-18T15:31:28;-1.90;98.60
19232;DHT22;9750;48.730;10.294;2022-12-18T15:37:18;-1.80;98.70
19232;DHT22;9750;48.730;10.294;2022-12-18T15:39:46;-1.90;98.80
19232;DHT22;9750;48.730;10.294;2022-12-18T15:42:13;-1.90;98.80
19232;DHT22;9750;48.730;10.294;2022-12-18T15:44:58;-1.90;98.80
19232;DHT22;9750;48.730;10.294;2022-12-18T15:47:25;-1.90;98.70
19232;DHT22;9750;48.730;10.294;2022-12-18T15:49:54;-1.80;98.70
19232;DHT22;9750;48.730;10.294;2022-12-18T15:52:22;-1.90;98.70
19232;DHT22;9750;48.730;10.294;2022-12-18T15:54:51;-1.90;98.70
19232;DHT22;9750;48.730;10.294;2022-12-18T15:57:36;-1.90;98.80
19232;DHT22;9750;48.730;10.294;2022-12-18T16:00:04;-1.90;98.80
19232;DHT22;9750;48.730;10.294;2022-12-18T16:02:32;-1.90;98.80
19232;DHT22;9750;48.730;10.294;2022-12-18T16:05:00;-1.90;98.80
19232;DHT22;9750;48.730;10.294;2022-12-18T16:07:29;-1.90;98.90
19232;DHT22;9750;48.730;10.294;2022-12-18T16:09:56;-1.90;98.90
19232;DHT22;9750;48.730;10.294;2022-12-18T16:12:24;-1.90;98.90
19232;DHT22;9750;48.730;10.294;2022-12-18T16:14:52;-1.90;98.90
19232;DHT22;9750;48.730;10.294;2022-12-18T16:17:19;-1.90;98.90